sensor_id;sensor_type;location;lat;lon;timestamp;P1;durP1;ratioP1;P2;durP2;ratioP2
1296;SDS011;641;48.492;9.184;2022-10-31T00:00:27;11.67;;;4.40;;
1296;SDS011;641;48.492;9.184;2022-10-31T00:02:53;13.17;;;5.53;;
1296;SDS011;641;48.492;9.184;2022-10-31T00:05:18;11.50;;;3.90;;
1296;SDS011;641;48.492;9.184;2022-10-31T00:07:44;13.67;;;4.17;;
1296;SDS011;641;48.492;9.184;2022-10-31T00:10:09;18.80;;;4.77;;
1296;SDS011;641;48.492;9.184;2022-10-31T00:12:35;13.20;;;4.67;;
1296;SDS011;641;48.492;9.184;2022-10-31T00:15:00;10.70;;;4.27;;
1296;SDS011;641;48.492;9.184;2022-10-31T00:17:26;10.77;;;4.07;;
1296;SDS011;641;48.492;9.184;2022-10-31T00:19:52;20.83;;;4.60;;
1296;SDS011;641;48.492;9.184;2022-10-31T00:22:17;12.87;;;4.87;;
1296;SDS011;641;48.492;9.184;2022-10-31T00:24:43;14.53;;;5.30;;
1296;SDS011;641;48.492;9.184;2022-10-31T00:27:08;12.87;;;4.40;;
1296;SDS011;641;48.492;9.184;2022-10-31T00:29:34;14.00;;;5.23;;
1296;SDS011;641;48.492;9.184;2022-10-31T00:31:59;14.43;;;6.07;;
1296;SDS011;641;48.492;9.184;2022-10-31T00:34:25;15.30;;;5.70;;
1296;SDS011;641;48.492;9.184;2022-10-31T00:36:50;17.50;;;5.63;;
1296;SDS011;641;48.492;9.184;2022-10-31T00:39:16;17.37;;;6.27;;
1296;SDS011;641;48.492;9.184;2022-10-31T00:41:42;15.30;;;4.60;;
1296;SDS011;641;48.492;9.184;2022-10-31T00:44:07;12.70;;;5.57;;
1296;SDS011;641;48.492;9.184;2022-10-31T00:46:33;13.37;;;5.00;;
1296;SDS011;641;48.492;9.184;2022-10-31T00:48:58;13.10;;;4.40;;
1296;SDS011;641;48.492;9.184;2022-10-31T00:51:24;14.53;;;5.50;;
1296;SDS011;641;48.492;9.184;2022-10-31T00:53:49;11.03;;;4.70;;
1296;SDS011;641;48.492;9.184;2022-10-31T00:56:15;21.40;;;5.30;;
1296;SDS011;641;48.492;9.184;2022-10-31T00:58:40;16.13;;;4.90;;
1296;SDS011;641;48.492;9.184;2022-10-31T01:01:06;10.50;;;4.30;;
1296;SDS011;641;48.492;9.184;2022-10-31T01:03:32;13.67;;;4.77;;
1296;SDS011;641;48.492;9.184;2022-10-31T01:06:05;11.13;;;3.70;;
1296;SDS011;641;48.492;9.184;2022-10-31T01:08:34;10.10;;;3.90;;
1296;SDS011;641;48.492;9.184;2022-10-31T01:11:04;12.83;;;3.90;;
1296;SDS011;641;48.492;9.184;2022-10-31T01:13:32;11.03;;;3.80;;
1296;SDS011;641;48.492;9.184;2022-10-31T01:15:58;15.10;;;5.30;;
1296;SDS011;641;48.492;9.184;2022-10-31T01:18:24;14.33;;;4.83;;
1296;SDS011;641;48.492;9.184;2022-10-31T01:21:00;14.60;;;5.73;;
1296;SDS011;641;48.492;9.184;2022-10-31T01:23:33;15.60;;;6.30;;
1296;SDS011;641;48.492;9.184;2022-10-31T01:26:00;14.30;;;6.13;;
1296;SDS011;641;48.492;9.184;2022-10-31T01:28:50;11.60;;;5.17;;
1296;SDS011;641;48.492;9.184;2022-10-31T01:31:22;15.77;;;3.93;;
1296;SDS011;641;48.492;9.184;2022-10-31T01:33:49;12.40;;;4.73;;
1296;SDS011;641;48.492;9.184;2022-10-31T01:36:19;13.50;;;4.93;;
1296;SDS011;641;48.492;9.184;2022-10-31T01:38:46;12.17;;;4.17;;
1296;SDS011;641;48.492;9.184;2022-10-31T01:41:14;12.43;;;4.47;;
1296;SDS011;641;48.492;9.184;2022-10-31T01:43:43;26.27;;;4.90;;
1296;SDS011;641;48.492;9.184;2022-10-31T01:46:18;11.93;;;4.13;;
1296;SDS011;641;48.492;9.184;2022-10-31T01:48:47;11.87;;;4.03;;
1296;SDS011;641;48.492;9.184;2022-10-31T01:51:13;13.20;;;5.70;;
1296;SDS011;641;48.492;9.184;2022-10-31T01:53:41;15.37;;;4.20;;
1296;SDS011;641;48.492;9.184;2022-10-31T01:56:09;11.23;;;4.17;;
1296;SDS011;641;48.492;9.184;2022-10-31T01:58:35;15.23;;;5.40;;
1296;SDS011;641;48.492;9.184;2022-10-31T02:01:01;14.40;;;4.20;;
1296;SDS011;641;48.492;9.184;2022-10-31T02:03:28;13.20;;;3.70;;
1296;SDS011;641;48.492;9.184;2022-10-31T02:05:55;10.47;;;4.43;;
1296;SDS011;641;48.492;9.184;2022-10-31T02:08:26;13.50;;;4.90;;
1296;SDS011;641;48.492;9.184;2022-10-31T02:10:52;13.23;;;4.23;;
1296;SDS011;641;48.492;9.184;2022-10-31T02:13:19;13.50;;;4.90;;
1296;SDS011;641;48.492;9.184;2022-10-31T02:15:47;12.70;;;4.70;;
1296;SDS011;641;48.492;9.184;2022-10-31T02:18:17;17.97;;;4.10;;
1296;SDS011;641;48.492;9.184;2022-10-31T02:23:43;10.83;;;3.80;;
1296;SDS011;641;48.492;9.184;2022-10-31T02:26:32;14.37;;;5.00;;
1296;SDS011;641;48.492;9.184;2022-10-31T02:34:41;12.23;;;5.03;;
1296;SDS011;641;48.492;9.184;2022-10-31T02:37:24;13.07;;;4.50;;
1296;SDS011;641;48.492;9.184;2022-10-31T02:40:07;15.67;;;3.97;;
1296;SDS011;641;48.492;9.184;2022-10-31T02:45:22;11.60;;;3.97;;
1296;SDS011;641;48.492;9.184;2022-10-31T02:48:10;12.87;;;4.43;;
1296;SDS011;641;48.492;9.184;2022-10-31T02:50:41;13.13;;;4.00;;
1296;SDS011;641;48.492;9.184;2022-10-31T02:53:13;15.10;;;4.60;;
1296;SDS011;641;48.492;9.184;2022-10-31T02:55:44;11.53;;;5.00;;
1296;SDS011;641;48.492;9.184;2022-10-31T02:58:15;11.50;;;4.50;;
1296;SDS011;641;48.492;9.184;2022-10-31T03:06:09;12.70;;;4.43;;
1296;SDS011;641;48.492;9.184;2022-10-31T03:08:48;14.03;;;4.50;;
1296;SDS011;641;48.492;9.184;2022-10-31T03:11:17;13.50;;;4.57;;
1296;SDS011;641;48.492;9.184;2022-10-31T03:13:50;12.13;;;5.03;;
1296;SDS011;641;48.492;9.184;2022-10-31T03:16:28;13.00;;;4.93;;
1296;SDS011;641;48.492;9.184;2022-10-31T03:21:29;17.73;;;4.50;;
1296;SDS011;641;48.492;9.184;2022-10-31T03:23:59;12.80;;;5.10;;
1296;SDS011;641;48.492;9.184;2022-10-31T03:26:26;17.33;;;4.47;;
1296;SDS011;641;48.492;9.184;2022-10-31T03:28:57;15.83;;;4.50;;
1296;SDS011;641;48.492;9.184;2022-10-31T03:31:32;11.10;;;4.07;;
1296;SDS011;641;48.492;9.184;2022-10-31T03:34:02;13.30;;;4.53;;
1296;SDS011;641;48.492;9.184;2022-10-31T03:36:32;13.83;;;5.00;;
1296;SDS011;641;48.492;9.184;2022-10-31T03:39:01;17.47;;;5.40;;
1296;SDS011;641;48.492;9.184;2022-10-31T03:41:30;13.27;;;5.47;;
1296;SDS011;641;48.492;9.184;2022-10-31T03:44:01;13.07;;;4.90;;
1296;SDS011;641;48.492;9.184;2022-10-31T03:46:38;18.43;;;5.17;;
1296;SDS011;641;48.492;9.184;2022-10-31T03:49:04;17.00;;;5.30;;
1296;SDS011;641;48.492;9.184;2022-10-31T03:51:54;13.80;;;5.03;;
1296;SDS011;641;48.492;9.184;2022-10-31T03:59:53;13.20;;;4.83;;
1296;SDS011;641;48.492;9.184;2022-10-31T04:02:30;13.63;;;4.73;;
1296;SDS011;641;48.492;9.184;2022-10-31T04:04:58;13.87;;;5.50;;
1296;SDS011;641;48.492;9.184;2022-10-31T04:07:26;11.63;;;4.80;;
1296;SDS011;641;48.492;9.184;2022-10-31T04:09:55;13.40;;;4.73;;
1296;SDS011;641;48.492;9.184;2022-10-31T04:12:22;17.53;;;5.10;;
1296;SDS011;641;48.492;9.184;2022-10-31T04:14:50;13.70;;;5.03;;
1296;SDS011;641;48.492;9.184;2022-10-31T04:17:17;19.10;;;7.50;;
1296;SDS011;641;48.492;9.184;2022-10-31T04:19:46;10.50;;;4.47;;
1296;SDS011;641;48.492;9.184;2022-10-31T04:22:11;13.40;;;4.90;;
1296;SDS011;641;48.492;9.184;2022-10-31T04:24:38;10.97;;;5.00;;
1296;SDS011;641;48.492;9.184;2022-10-31T04:27:05;13.97;;;4.73;;
1296;SDS011;641;48.492;9.184;2022-10-31T04:29:30;14.00;;;5.80;;
1296;SDS011;641;48.492;9.184;2022-10-31T04:31:56;10.20;;;4.13;;
1296;SDS011;641;48.492;9.184;2022-10-31T04:34:21;11.40;;;4.20;;
1296;SDS011;641;48.492;9.184;2022-10-31T04:36:47;13.63;;;4.83;;
1296;SDS011;641;48.492;9.184;2022-10-31T04:39:13;13.90;;;5.50;;
1296;SDS011;641;48.492;9.184;2022-10-31T04:41:38;10.77;;;4.03;;
1296;SDS011;641;48.492;9.184;2022-10-31T04:44:04;13.43;;;5.07;;
1296;SDS011;641;48.492;9.184;2022-10-31T04:46:29;11.77;;;4.43;;
1296;SDS011;641;48.492;9.184;2022-10-31T04:48:55;8.77;;;3.53;;
1296;SDS011;641;48.492;9.184;2022-10-31T04:51:21;14.23;;;4.40;;
1296;SDS011;641;48.492;9.184;2022-10-31T04:53:47;18.50;;;5.00;;
1296;SDS011;641;48.492;9.184;2022-10-31T04:56:12;13.97;;;4.73;;
1296;SDS011;641;48.492;9.184;2022-10-31T04:58:38;11.10;;;3.83;;
1296;SDS011;641;48.492;9.184;2022-10-31T05:01:04;11.33;;;3.83;;
1296;SDS011;641;48.492;9.184;2022-10-31T05:03:29;11.73;;;4.03;;
1296;SDS011;641;48.492;9.184;2022-10-31T05:05:55;12.77;;;4.00;;
1296;SDS011;641;48.492;9.184;2022-10-31T05:08:20;21.93;;;4.83;;
1296;SDS011;641;48.492;9.184;2022-10-31T05:10:46;15.73;;;5.13;;
1296;SDS011;641;48.492;9.184;2022-10-31T05:13:11;13.70;;;5.07;;
1296;SDS011;641;48.492;9.184;2022-10-31T05:15:37;17.23;;;6.30;;
1296;SDS011;641;48.492;9.184;2022-10-31T05:18:03;14.77;;;5.30;;
1296;SDS011;641;48.492;9.184;2022-10-31T05:20:29;13.03;;;4.87;;
1296;SDS011;641;48.492;9.184;2022-10-31T05:22:56;11.80;;;4.30;;
1296;SDS011;641;48.492;9.184;2022-10-31T05:25:23;14.40;;;4.93;;
1296;SDS011;641;48.492;9.184;2022-10-31T05:27:51;11.90;;;5.03;;
1296;SDS011;641;48.492;9.184;2022-10-31T05:30:22;12.60;;;4.27;;
1296;SDS011;641;48.492;9.184;2022-10-31T05:32:50;13.73;;;4.90;;
1296;SDS011;641;48.492;9.184;2022-10-31T05:35:20;14.13;;;5.27;;
1296;SDS011;641;48.492;9.184;2022-10-31T05:37:50;19.73;;;5.53;;
1296;SDS011;641;48.492;9.184;2022-10-31T05:40:17;15.13;;;5.30;;
1296;SDS011;641;48.492;9.184;2022-10-31T05:42:44;15.57;;;5.57;;
1296;SDS011;641;48.492;9.184;2022-10-31T05:45:11;16.00;;;4.87;;
1296;SDS011;641;48.492;9.184;2022-10-31T05:47:38;13.90;;;4.83;;
1296;SDS011;641;48.492;9.184;2022-10-31T05:50:04;11.43;;;4.07;;
1296;SDS011;641;48.492;9.184;2022-10-31T05:52:31;11.63;;;4.20;;
1296;SDS011;641;48.492;9.184;2022-10-31T05:54:57;16.63;;;5.60;;
1296;SDS011;641;48.492;9.184;2022-10-31T05:57:22;9.37;;;4.20;;
1296;SDS011;641;48.492;9.184;2022-10-31T05:59:49;17.93;;;5.80;;
1296;SDS011;641;48.492;9.184;2022-10-31T06:02:17;14.53;;;5.20;;
1296;SDS011;641;48.492;9.184;2022-10-31T06:04:46;11.23;;;3.50;;
1296;SDS011;641;48.492;9.184;2022-10-31T06:07:12;15.10;;;5.40;;
1296;SDS011;641;48.492;9.184;2022-10-31T06:09:38;14.20;;;4.87;;
1296;SDS011;641;48.492;9.184;2022-10-31T06:12:04;9.97;;;3.50;;
1296;SDS011;641;48.492;9.184;2022-10-31T06:14:30;9.90;;;3.87;;
1296;SDS011;641;48.492;9.184;2022-10-31T06:16:55;12.70;;;4.53;;
1296;SDS011;641;48.492;9.184;2022-10-31T06:19:21;11.13;;;4.20;;
1296;SDS011;641;48.492;9.184;2022-10-31T06:21:46;14.40;;;4.30;;
1296;SDS011;641;48.492;9.184;2022-10-31T06:24:12;13.97;;;5.20;;
1296;SDS011;641;48.492;9.184;2022-10-31T06:26:38;19.23;;;5.57;;
1296;SDS011;641;48.492;9.184;2022-10-31T06:29:03;15.90;;;4.87;;
1296;SDS011;641;48.492;9.184;2022-10-31T06:31:29;9.90;;;4.57;;
1296;SDS011;641;48.492;9.184;2022-10-31T06:33:55;13.57;;;4.50;;
1296;SDS011;641;48.492;9.184;2022-10-31T06:36:20;13.53;;;5.20;;
1296;SDS011;641;48.492;9.184;2022-10-31T06:38:46;16.47;;;6.00;;
1296;SDS011;641;48.492;9.184;2022-10-31T06:41:11;16.07;;;6.50;;
1296;SDS011;641;48.492;9.184;2022-10-31T06:43:37;16.53;;;6.00;;
1296;SDS011;641;48.492;9.184;2022-10-31T06:46:03;16.53;;;5.20;;
1296;SDS011;641;48.492;9.184;2022-10-31T06:48:29;16.07;;;5.87;;
1296;SDS011;641;48.492;9.184;2022-10-31T06:50:59;21.43;;;6.20;;
1296;SDS011;641;48.492;9.184;2022-10-31T06:53:25;14.27;;;5.77;;
1296;SDS011;641;48.492;9.184;2022-10-31T06:55:51;17.17;;;6.00;;
1296;SDS011;641;48.492;9.184;2022-10-31T06:58:17;12.60;;;4.67;;
1296;SDS011;641;48.492;9.184;2022-10-31T07:00:42;13.20;;;5.50;;
1296;SDS011;641;48.492;9.184;2022-10-31T07:03:12;13.20;;;4.80;;
1296;SDS011;641;48.492;9.184;2022-10-31T07:05:39;12.40;;;5.17;;
1296;SDS011;641;48.492;9.184;2022-10-31T07:08:06;15.57;;;4.77;;
1296;SDS011;641;48.492;9.184;2022-10-31T07:10:34;12.93;;;4.67;;
1296;SDS011;641;48.492;9.184;2022-10-31T07:13:03;13.60;;;4.73;;
1296;SDS011;641;48.492;9.184;2022-10-31T07:15:32;15.30;;;5.50;;
1296;SDS011;641;48.492;9.184;2022-10-31T07:18:00;16.20;;;5.30;;
1296;SDS011;641;48.492;9.184;2022-10-31T07:20:26;10.60;;;4.80;;
1296;SDS011;641;48.492;9.184;2022-10-31T07:22:52;14.33;;;5.70;;
1296;SDS011;641;48.492;9.184;2022-10-31T07:25:18;13.73;;;5.40;;
1296;SDS011;641;48.492;9.184;2022-10-31T07:27:43;14.23;;;6.57;;
1296;SDS011;641;48.492;9.184;2022-10-31T07:30:10;17.70;;;5.97;;
1296;SDS011;641;48.492;9.184;2022-10-31T07:32:46;14.83;;;6.20;;
1296;SDS011;641;48.492;9.184;2022-10-31T07:35:23;15.07;;;6.00;;
1296;SDS011;641;48.492;9.184;2022-10-31T07:37:52;15.13;;;5.97;;
1296;SDS011;641;48.492;9.184;2022-10-31T07:40:18;12.03;;;5.57;;
1296;SDS011;641;48.492;9.184;2022-10-31T07:42:45;23.43;;;6.80;;
1296;SDS011;641;48.492;9.184;2022-10-31T07:45:12;22.80;;;7.70;;
1296;SDS011;641;48.492;9.184;2022-10-31T07:47:45;18.20;;;6.20;;
1296;SDS011;641;48.492;9.184;2022-10-31T07:50:13;11.87;;;5.67;;
1296;SDS011;641;48.492;9.184;2022-10-31T07:52:44;15.67;;;5.37;;
1296;SDS011;641;48.492;9.184;2022-10-31T07:55:10;13.23;;;5.03;;
1296;SDS011;641;48.492;9.184;2022-10-31T07:57:36;15.03;;;5.70;;
1296;SDS011;641;48.492;9.184;2022-10-31T08:00:03;13.13;;;5.70;;
1296;SDS011;641;48.492;9.184;2022-10-31T08:02:33;13.27;;;5.40;;
1296;SDS011;641;48.492;9.184;2022-10-31T08:04:58;15.10;;;4.60;;
1296;SDS011;641;48.492;9.184;2022-10-31T08:07:25;11.57;;;4.20;;
1296;SDS011;641;48.492;9.184;2022-10-31T08:09:51;15.73;;;4.83;;
1296;SDS011;641;48.492;9.184;2022-10-31T08:12:17;14.73;;;4.90;;
1296;SDS011;641;48.492;9.184;2022-10-31T08:14:43;16.43;;;7.33;;
1296;SDS011;641;48.492;9.184;2022-10-31T08:17:09;13.07;;;5.17;;
1296;SDS011;641;48.492;9.184;2022-10-31T08:19:34;18.07;;;6.30;;
1296;SDS011;641;48.492;9.184;2022-10-31T08:22:00;16.80;;;6.07;;
1296;SDS011;641;48.492;9.184;2022-10-31T08:24:26;14.50;;;6.47;;
1296;SDS011;641;48.492;9.184;2022-10-31T08:26:51;17.63;;;5.90;;
1296;SDS011;641;48.492;9.184;2022-10-31T08:29:17;13.97;;;5.43;;
1296;SDS011;641;48.492;9.184;2022-10-31T08:31:42;15.70;;;5.23;;
1296;SDS011;641;48.492;9.184;2022-10-31T08:34:08;16.77;;;5.00;;
1296;SDS011;641;48.492;9.184;2022-10-31T08:36:34;11.70;;;5.10;;
1296;SDS011;641;48.492;9.184;2022-10-31T08:39:00;13.83;;;5.40;;
1296;SDS011;641;48.492;9.184;2022-10-31T08:41:26;14.27;;;6.27;;
1296;SDS011;641;48.492;9.184;2022-10-31T08:43:51;18.70;;;6.23;;
1296;SDS011;641;48.492;9.184;2022-10-31T08:46:17;15.27;;;5.50;;
1296;SDS011;641;48.492;9.184;2022-10-31T08:48:43;17.20;;;5.80;;
1296;SDS011;641;48.492;9.184;2022-10-31T08:51:08;19.17;;;6.70;;
1296;SDS011;641;48.492;9.184;2022-10-31T08:53:35;19.00;;;7.40;;
1296;SDS011;641;48.492;9.184;2022-10-31T08:56:00;11.97;;;5.07;;
1296;SDS011;641;48.492;9.184;2022-10-31T08:58:26;11.60;;;4.70;;
1296;SDS011;641;48.492;9.184;2022-10-31T09:00:52;13.40;;;5.40;;
1296;SDS011;641;48.492;9.184;2022-10-31T09:03:20;11.40;;;5.37;;
1296;SDS011;641;48.492;9.184;2022-10-31T09:05:48;18.00;;;5.60;;
1296;SDS011;641;48.492;9.184;2022-10-31T09:08:14;19.30;;;4.60;;
1296;SDS011;641;48.492;9.184;2022-10-31T09:10:41;11.93;;;4.30;;
1296;SDS011;641;48.492;9.184;2022-10-31T09:13:12;12.67;;;5.37;;
1296;SDS011;641;48.492;9.184;2022-10-31T09:15:42;17.03;;;4.67;;
1296;SDS011;641;48.492;9.184;2022-10-31T09:18:10;14.33;;;5.17;;
1296;SDS011;641;48.492;9.184;2022-10-31T09:20:37;15.33;;;5.47;;
1296;SDS011;641;48.492;9.184;2022-10-31T09:23:04;13.70;;;4.87;;
1296;SDS011;641;48.492;9.184;2022-10-31T09:25:51;13.30;;;5.23;;
1296;SDS011;641;48.492;9.184;2022-10-31T09:28:18;11.63;;;4.73;;
1296;SDS011;641;48.492;9.184;2022-10-31T09:30:46;11.70;;;4.97;;
1296;SDS011;641;48.492;9.184;2022-10-31T09:33:13;13.90;;;4.30;;
1296;SDS011;641;48.492;9.184;2022-10-31T09:35:39;14.00;;;4.40;;
1296;SDS011;641;48.492;9.184;2022-10-31T09:38:07;16.57;;;4.77;;
1296;SDS011;641;48.492;9.184;2022-10-31T09:40:38;12.90;;;4.93;;
1296;SDS011;641;48.492;9.184;2022-10-31T09:51:18;9.33;;;3.77;;
1296;SDS011;641;48.492;9.184;2022-10-31T09:53:59;13.83;;;4.90;;
1296;SDS011;641;48.492;9.184;2022-10-31T09:56:35;13.33;;;5.17;;
1296;SDS011;641;48.492;9.184;2022-10-31T09:59:02;14.43;;;4.13;;
1296;SDS011;641;48.492;9.184;2022-10-31T10:01:33;13.93;;;4.50;;
1296;SDS011;641;48.492;9.184;2022-10-31T10:06:54;10.93;;;4.00;;
1296;SDS011;641;48.492;9.184;2022-10-31T10:09:21;14.30;;;4.57;;
1296;SDS011;641;48.492;9.184;2022-10-31T10:12:04;13.40;;;5.33;;
1296;SDS011;641;48.492;9.184;2022-10-31T10:14:51;10.77;;;4.20;;
1296;SDS011;641;48.492;9.184;2022-10-31T10:18:02;15.60;;;6.10;;
1296;SDS011;641;48.492;9.184;2022-10-31T10:28:44;19.30;;;6.10;;
1296;SDS011;641;48.492;9.184;2022-10-31T10:31:19;12.80;;;4.63;;
1296;SDS011;641;48.492;9.184;2022-10-31T10:36:26;14.93;;;5.17;;
1296;SDS011;641;48.492;9.184;2022-10-31T10:39:02;13.23;;;4.03;;
1296;SDS011;641;48.492;9.184;2022-10-31T10:41:49;15.60;;;5.47;;
1296;SDS011;641;48.492;9.184;2022-10-31T10:44:38;15.90;;;5.07;;
1296;SDS011;641;48.492;9.184;2022-10-31T10:47:27;21.00;;;6.37;;
1296;SDS011;641;48.492;9.184;2022-10-31T10:50:17;11.13;;;4.60;;
1296;SDS011;641;48.492;9.184;2022-10-31T10:55:39;16.43;;;5.60;;
1296;SDS011;641;48.492;9.184;2022-10-31T10:58:17;12.00;;;4.50;;
1296;SDS011;641;48.492;9.184;2022-10-31T11:00:43;14.10;;;5.37;;
1296;SDS011;641;48.492;9.184;2022-10-31T11:03:15;12.57;;;4.63;;
1296;SDS011;641;48.492;9.184;2022-10-31T11:05:55;14.20;;;4.90;;
1296;SDS011;641;48.492;9.184;2022-10-31T11:08:27;15.23;;;5.47;;
1296;SDS011;641;48.492;9.184;2022-10-31T11:10:58;16.30;;;4.63;;
1296;SDS011;641;48.492;9.184;2022-10-31T11:13:28;21.10;;;5.70;;
1296;SDS011;641;48.492;9.184;2022-10-31T11:18:32;12.00;;;4.47;;
1296;SDS011;641;48.492;9.184;2022-10-31T11:21:02;11.67;;;4.70;;
1296;SDS011;641;48.492;9.184;2022-10-31T11:23:29;12.83;;;4.27;;
1296;SDS011;641;48.492;9.184;2022-10-31T11:25:57;15.83;;;5.53;;
1296;SDS011;641;48.492;9.184;2022-10-31T11:28:31;17.30;;;5.37;;
1296;SDS011;641;48.492;9.184;2022-10-31T11:31:00;11.90;;;4.87;;
1296;SDS011;641;48.492;9.184;2022-10-31T11:33:39;14.07;;;6.07;;
1296;SDS011;641;48.492;9.184;2022-10-31T11:36:16;12.33;;;5.43;;
1296;SDS011;641;48.492;9.184;2022-10-31T11:38:47;13.60;;;4.60;;
1296;SDS011;641;48.492;9.184;2022-10-31T11:41:14;21.27;;;5.40;;
1296;SDS011;641;48.492;9.184;2022-10-31T11:44:25;12.77;;;4.50;;
1296;SDS011;641;48.492;9.184;2022-10-31T11:49:18;15.47;;;4.53;;
1296;SDS011;641;48.492;9.184;2022-10-31T11:52:36;13.40;;;4.77;;
1296;SDS011;641;48.492;9.184;2022-10-31T11:57:31;17.07;;;5.90;;
1296;SDS011;641;48.492;9.184;2022-10-31T11:59:59;15.77;;;4.47;;
1296;SDS011;641;48.492;9.184;2022-10-31T12:02:28;13.50;;;4.90;;
1296;SDS011;641;48.492;9.184;2022-10-31T12:07:46;11.37;;;4.43;;
1296;SDS011;641;48.492;9.184;2022-10-31T12:10:13;17.70;;;5.47;;
1296;SDS011;641;48.492;9.184;2022-10-31T12:15:33;13.17;;;5.00;;
1296;SDS011;641;48.492;9.184;2022-10-31T12:26:43;14.67;;;4.60;;
1296;SDS011;641;48.492;9.184;2022-10-31T12:32:43;13.73;;;4.93;;
1296;SDS011;641;48.492;9.184;2022-10-31T12:35:39;10.20;;;4.63;;
1296;SDS011;641;48.492;9.184;2022-10-31T12:41:06;13.47;;;4.53;;
1296;SDS011;641;48.492;9.184;2022-10-31T12:43:57;11.57;;;4.37;;
1296;SDS011;641;48.492;9.184;2022-10-31T12:49:42;10.70;;;3.93;;
1296;SDS011;641;48.492;9.184;2022-10-31T12:55:10;12.57;;;5.67;;
1296;SDS011;641;48.492;9.184;2022-10-31T12:57:47;11.93;;;5.20;;
1296;SDS011;641;48.492;9.184;2022-10-31T13:00:18;14.07;;;3.97;;
1296;SDS011;641;48.492;9.184;2022-10-31T13:05:16;14.37;;;4.30;;
1296;SDS011;641;48.492;9.184;2022-10-31T13:07:57;17.90;;;4.60;;
1296;SDS011;641;48.492;9.184;2022-10-31T13:10:30;11.17;;;4.90;;
1296;SDS011;641;48.492;9.184;2022-10-31T13:13:02;12.87;;;5.30;;
1296;SDS011;641;48.492;9.184;2022-10-31T13:15:35;13.17;;;4.77;;
1296;SDS011;641;48.492;9.184;2022-10-31T13:18:18;10.13;;;4.50;;
1296;SDS011;641;48.492;9.184;2022-10-31T13:20:54;18.20;;;5.60;;
1296;SDS011;641;48.492;9.184;2022-10-31T13:23:27;13.70;;;4.90;;
1296;SDS011;641;48.492;9.184;2022-10-31T13:25:59;16.80;;;6.63;;
1296;SDS011;641;48.492;9.184;2022-10-31T13:28:35;14.60;;;7.57;;
1296;SDS011;641;48.492;9.184;2022-10-31T13:31:22;18.70;;;6.40;;
1296;SDS011;641;48.492;9.184;2022-10-31T13:33:57;13.67;;;5.63;;
1296;SDS011;641;48.492;9.184;2022-10-31T13:36:49;13.10;;;5.60;;
1296;SDS011;641;48.492;9.184;2022-10-31T13:42:48;12.70;;;4.90;;
1296;SDS011;641;48.492;9.184;2022-10-31T13:45:21;11.70;;;4.70;;
1296;SDS011;641;48.492;9.184;2022-10-31T13:47:56;14.53;;;5.63;;
1296;SDS011;641;48.492;9.184;2022-10-31T13:50:57;15.87;;;5.20;;
1296;SDS011;641;48.492;9.184;2022-10-31T13:56:23;10.77;;;4.30;;
1296;SDS011;641;48.492;9.184;2022-10-31T14:01:33;15.07;;;6.10;;
1296;SDS011;641;48.492;9.184;2022-10-31T14:04:06;11.97;;;4.80;;
1296;SDS011;641;48.492;9.184;2022-10-31T14:07:41;19.77;;;5.43;;
1296;SDS011;641;48.492;9.184;2022-10-31T14:09:37;15.20;;;4.60;;
1296;SDS011;641;48.492;9.184;2022-10-31T14:14:55;13.30;;;4.60;;
1296;SDS011;641;48.492;9.184;2022-10-31T14:17:26;12.30;;;4.53;;
1296;SDS011;641;48.492;9.184;2022-10-31T14:20:40;14.93;;;4.67;;
1296;SDS011;641;48.492;9.184;2022-10-31T14:22:49;10.37;;;4.33;;
1296;SDS011;641;48.492;9.184;2022-10-31T14:25:24;13.83;;;5.20;;
1296;SDS011;641;48.492;9.184;2022-10-31T14:27:50;17.00;;;4.77;;
1296;SDS011;641;48.492;9.184;2022-10-31T14:30:18;13.00;;;4.23;;
1296;SDS011;641;48.492;9.184;2022-10-31T14:33:00;13.83;;;4.20;;
1296;SDS011;641;48.492;9.184;2022-10-31T14:36:10;13.97;;;4.83;;
1296;SDS011;641;48.492;9.184;2022-10-31T14:38:34;14.07;;;4.30;;
1296;SDS011;641;48.492;9.184;2022-10-31T14:41:17;13.03;;;4.63;;
1296;SDS011;641;48.492;9.184;2022-10-31T14:43:56;16.20;;;5.37;;
1296;SDS011;641;48.492;9.184;2022-10-31T14:46:52;14.63;;;4.27;;
1296;SDS011;641;48.492;9.184;2022-10-31T14:52:37;13.03;;;4.83;;
1296;SDS011;641;48.492;9.184;2022-10-31T14:55:05;13.43;;;4.33;;
1296;SDS011;641;48.492;9.184;2022-10-31T14:57:36;14.80;;;5.37;;
1296;SDS011;641;48.492;9.184;2022-10-31T15:00:07;13.80;;;5.23;;
1296;SDS011;641;48.492;9.184;2022-10-31T15:02:55;20.87;;;6.00;;
1296;SDS011;641;48.492;9.184;2022-10-31T15:05:26;13.20;;;5.63;;
1296;SDS011;641;48.492;9.184;2022-10-31T15:07:54;11.40;;;4.60;;
1296;SDS011;641;48.492;9.184;2022-10-31T15:12:55;15.10;;;5.90;;
1296;SDS011;641;48.492;9.184;2022-10-31T15:15:22;11.70;;;4.60;;
1296;SDS011;641;48.492;9.184;2022-10-31T15:17:53;12.13;;;4.60;;
1296;SDS011;641;48.492;9.184;2022-10-31T15:20:28;14.40;;;4.10;;
1296;SDS011;641;48.492;9.184;2022-10-31T15:22:56;13.90;;;4.43;;
1296;SDS011;641;48.492;9.184;2022-10-31T15:25:23;16.90;;;5.93;;
1296;SDS011;641;48.492;9.184;2022-10-31T15:27:52;17.80;;;7.40;;
1296;SDS011;641;48.492;9.184;2022-10-31T15:30:19;16.77;;;6.20;;
1296;SDS011;641;48.492;9.184;2022-10-31T15:32:46;14.17;;;5.50;;
1296;SDS011;641;48.492;9.184;2022-10-31T15:35:29;13.17;;;5.60;;
1296;SDS011;641;48.492;9.184;2022-10-31T15:37:56;16.53;;;7.60;;
1296;SDS011;641;48.492;9.184;2022-10-31T15:40:24;14.20;;;6.63;;
1296;SDS011;641;48.492;9.184;2022-10-31T15:43:01;13.60;;;4.70;;
1296;SDS011;641;48.492;9.184;2022-10-31T15:45:29;14.90;;;5.30;;
1296;SDS011;641;48.492;9.184;2022-10-31T15:53:36;15.97;;;7.20;;
1296;SDS011;641;48.492;9.184;2022-10-31T15:56:06;17.30;;;7.90;;
1296;SDS011;641;48.492;9.184;2022-10-31T15:58:39;15.50;;;7.50;;
1296;SDS011;641;48.492;9.184;2022-10-31T16:01:26;13.43;;;6.07;;
1296;SDS011;641;48.492;9.184;2022-10-31T16:04:01;16.50;;;6.70;;
1296;SDS011;641;48.492;9.184;2022-10-31T16:06:29;12.70;;;5.60;;
1296;SDS011;641;48.492;9.184;2022-10-31T16:08:56;16.93;;;6.83;;
1296;SDS011;641;48.492;9.184;2022-10-31T16:11:24;17.40;;;6.53;;
1296;SDS011;641;48.492;9.184;2022-10-31T16:16:26;17.67;;;7.27;;
1296;SDS011;641;48.492;9.184;2022-10-31T16:18:54;15.80;;;6.90;;
1296;SDS011;641;48.492;9.184;2022-10-31T16:21:28;17.20;;;7.40;;
1296;SDS011;641;48.492;9.184;2022-10-31T16:23:59;18.00;;;8.10;;
1296;SDS011;641;48.492;9.184;2022-10-31T16:26:30;14.70;;;7.57;;
1296;SDS011;641;48.492;9.184;2022-10-31T16:28:58;18.77;;;8.30;;
1296;SDS011;641;48.492;9.184;2022-10-31T16:31:25;17.30;;;8.27;;
1296;SDS011;641;48.492;9.184;2022-10-31T16:34:05;20.03;;;7.93;;
1296;SDS011;641;48.492;9.184;2022-10-31T16:36:38;13.80;;;7.00;;
1296;SDS011;641;48.492;9.184;2022-10-31T16:39:04;15.93;;;7.63;;
1296;SDS011;641;48.492;9.184;2022-10-31T16:41:30;13.03;;;6.93;;
1296;SDS011;641;48.492;9.184;2022-10-31T16:43:59;15.93;;;6.90;;
1296;SDS011;641;48.492;9.184;2022-10-31T16:46:26;15.40;;;8.17;;
1296;SDS011;641;48.492;9.184;2022-10-31T16:48:53;19.33;;;8.67;;
1296;SDS011;641;48.492;9.184;2022-10-31T16:51:19;19.03;;;8.43;;
1296;SDS011;641;48.492;9.184;2022-10-31T16:53:44;23.53;;;8.30;;
1296;SDS011;641;48.492;9.184;2022-10-31T16:56:17;20.70;;;8.70;;
1296;SDS011;641;48.492;9.184;2022-10-31T16:58:47;20.83;;;8.63;;
1296;SDS011;641;48.492;9.184;2022-10-31T17:01:13;22.97;;;9.90;;
1296;SDS011;641;48.492;9.184;2022-10-31T17:03:39;17.43;;;8.57;;
1296;SDS011;641;48.492;9.184;2022-10-31T17:06:04;17.23;;;8.17;;
1296;SDS011;641;48.492;9.184;2022-10-31T17:08:30;22.73;;;9.10;;
1296;SDS011;641;48.492;9.184;2022-10-31T17:10:57;17.87;;;9.00;;
1296;SDS011;641;48.492;9.184;2022-10-31T17:13:24;21.30;;;9.37;;
1296;SDS011;641;48.492;9.184;2022-10-31T17:15:53;17.93;;;8.67;;
1296;SDS011;641;48.492;9.184;2022-10-31T17:18:21;17.50;;;8.20;;
1296;SDS011;641;48.492;9.184;2022-10-31T17:20:47;24.20;;;9.30;;
1296;SDS011;641;48.492;9.184;2022-10-31T17:23:13;19.00;;;8.83;;
1296;SDS011;641;48.492;9.184;2022-10-31T17:25:40;16.60;;;8.30;;